Time;durP1;ratioP1;P1;durP2;ratioP2;P2;SDS_P1;SDS_P2;PMS_P1;PMS_P2;Temp;Humidity;BMP_temperature;BMP_pressure;BME280_temperature;BME280_humidity;BME280_pressure;Samples;Min_cycle;Max_cycle;Signal;HPM_P1;HPM_P2
2021/08/27 00:01:54;;;;;;;7.40;3.33;;;12.70;99.90;;;;;;4996823;28;20964;-67
2021/08/27 00:04:21;;;;;;;5.77;2.80;;;12.70;99.90;;;;;;4997626;28;20730;-67
2021/08/27 00:06:51;;;;;;;6.20;3.00;;;12.70;99.90;;;;;;4997403;28;20476;-67
2021/08/27 00:09:19;;;;;;;8.33;2.70;;;12.60;99.90;;;;;;4997945;28;20464;-67
2021/08/27 00:11:46;;;;;;;7.60;3.40;;;12.70;99.90;;;;;;4996947;28;20472;-67
2021/08/27 00:14:13;;;;;;;7.47;3.40;;;12.70;99.90;;;;;;4997445;28;20488;-67
2021/08/27 00:16:40;;;;;;;7.73;3.67;;;12.70;99.90;;;;;;4997632;28;20465;-67
2021/08/27 00:19:07;;;;;;;6.40;2.57;;;12.70;99.90;;;;;;4997394;28;20465;-67
2021/08/27 00:21:34;;;;;;;9.77;2.60;;;12.80;99.90;;;;;;4997835;28;20909;-67
2021/08/27 00:24:03;;;;;;;7.40;3.50;;;12.80;99.90;;;;;;4997190;28;20457;-67
2021/08/27 00:26:31;;;;;;;10.50;3.10;;;12.70;99.90;;;;;;4987801;28;20448;-67
2021/08/27 00:28:59;;;;;;;13.10;3.50;;;12.70;99.90;;;;;;4989540;28;20465;-67
2021/08/27 00:31:26;;;;;;;6.30;2.93;;;12.70;99.90;;;;;;5000245;28;20465;-67
2021/08/27 00:33:58;;;;;;;6.30;3.13;;;12.70;99.90;;;;;;5000522;28;20511;-67
2021/08/27 00:36:25;;;;;;;8.73;4.00;;;12.70;99.90;;;;;;5001031;28;20460;-67
2021/08/27 00:38:53;;;;;;;9.20;3.10;;;12.60;99.90;;;;;;5000563;28;20473;-67
2021/08/27 00:41:20;;;;;;;4.50;3.13;;;12.60;99.90;;;;;;5001196;28;20511;-67
2021/08/27 00:43:51;;;;;;;6.60;3.50;;;12.60;99.90;;;;;;5001416;28;20526;-67
2021/08/27 00:46:20;;;;;;;8.93;3.77;;;12.60;99.90;;;;;;5000835;28;20465;-67
2021/08/27 00:48:50;;;;;;;8.57;3.60;;;12.60;99.90;;;;;;5000883;28;20885;-67
2021/08/27 00:51:17;;;;;;;10.53;3.40;;;12.60;99.90;;;;;;5000386;28;20436;-67
2021/08/27 00:53:44;;;;;;;7.63;3.40;;;12.60;99.90;;;;;;5001084;28;20498;-67
2021/08/27 00:56:13;;;;;;;9.10;3.90;;;12.60;99.90;;;;;;5000650;28;20546;-67
2021/08/27 00:58:40;;;;;;;7.70;3.63;;;12.60;99.90;;;;;;5000722;28;20469;-67
2021/08/27 01:01:08;;;;;;;8.77;3.90;;;12.50;99.90;;;;;;5000352;28;20472;-67
2021/08/27 01:03:36;;;;;;;6.47;3.37;;;12.50;99.90;;;;;;5000547;28;20881;-67
2021/08/27 01:06:13;;;;;;;9.63;4.20;;;12.40;99.90;;;;;;5000581;28;20461;-67
2021/08/27 01:08:52;;;;;;;6.03;3.50;;;12.40;99.90;;;;;;5000244;28;20460;-67
2021/08/27 01:11:31;;;;;;;10.97;5.10;;;12.40;99.90;;;;;;5000539;28;20559;-67
2021/08/27 01:14:03;;;;;;;10.10;3.90;;;12.40;99.90;;;;;;5000267;28;20492;-67
2021/08/27 01:16:37;;;;;;;10.50;4.17;;;12.40;99.90;;;;;;5000472;28;20464;-67
2021/08/27 01:19:36;;;;;;;9.73;4.17;;;12.30;99.90;;;;;;4999622;28;20969;-67
2021/08/27 01:22:22;;;;;;;9.63;3.67;;;12.20;99.90;;;;;;4999760;28;22445;-67
2021/08/27 01:24:50;;;;;;;13.47;4.73;;;12.20;99.90;;;;;;4999941;28;20772;-67
2021/08/27 01:27:19;;;;;;;8.70;3.50;;;12.20;99.90;;;;;;4999774;28;20469;-67
2021/08/27 01:29:55;;;;;;;7.87;3.90;;;12.20;99.90;;;;;;5000326;28;20472;-67
2021/08/27 01:32:35;;;;;;;9.73;4.00;;;12.20;99.90;;;;;;4999485;28;20523;-67
2021/08/27 01:35:04;;;;;;;6.90;3.93;;;12.10;99.90;;;;;;5000137;28;20964;-67
2021/08/27 01:37:33;;;;;;;12.83;4.30;;;12.10;99.90;;;;;;4999792;28;20953;-67
2021/08/27 01:40:01;;;;;;;9.10;4.23;;;12.20;99.90;;;;;;4999781;28;20531;-67
2021/08/27 01:42:29;;;;;;;4.63;3.30;;;12.20;99.90;;;;;;4999960;28;20872;-67
2021/08/27 01:44:59;;;;;;;7.23;4.07;;;12.10;99.90;;;;;;4999469;28;20547;-67
2021/08/27 01:47:31;;;;;;;8.27;4.70;;;12.10;99.90;;;;;;5000098;28;20461;-67
2021/08/27 01:49:59;;;;;;;8.03;3.23;;;12.20;99.90;;;;;;4998931;28;20473;-67
2021/08/27 01:52:29;;;;;;;6.00;3.67;;;12.20;99.90;;;;;;4999859;28;20468;-67
2021/08/27 01:54:57;;;;;;;11.83;4.30;;;12.20;99.90;;;;;;4997618;28;20462;-67
2021/08/27 01:57:25;;;;;;;8.47;4.20;;;12.20;99.90;;;;;;4987862;28;20493;-67
2021/08/27 01:59:52;;;;;;;13.07;4.17;;;12.20;99.90;;;;;;4996189;28;20548;-67
2021/08/27 02:02:21;;;;;;;7.03;3.77;;;12.30;99.90;;;;;;4994274;28;20977;-67
2021/08/27 02:04:52;;;;;;;10.17;4.37;;;12.30;99.90;;;;;;4982757;28;20936;-67
2021/08/27 02:07:20;;;;;;;8.40;3.03;;;12.20;99.90;;;;;;4998043;28;20468;-67
2021/08/27 02:09:51;;;;;;;8.60;4.10;;;12.20;99.90;;;;;;4998224;28;20468;-67
2021/08/27 02:12:19;;;;;;;4.87;3.50;;;12.30;99.90;;;;;;4998891;28;20804;-67
2021/08/27 02:14:49;;;;;;;8.00;4.00;;;12.30;99.90;;;;;;4998736;28;20503;-68
2021/08/27 02:17:16;;;;;;;6.77;3.77;;;12.20;99.90;;;;;;4998431;28;20527;-67
2021/08/27 02:19:44;;;;;;;12.70;3.43;;;12.20;99.90;;;;;;4993613;28;20527;-67
2021/08/27 02:22:16;;;;;;;9.70;3.60;;;12.20;99.90;;;;;;4995633;28;20469;-67
2021/08/27 02:24:46;;;;;;;8.00;4.07;;;12.20;99.90;;;;;;4987627;28;20462;-67
2021/08/27 02:27:17;;;;;;;6.43;3.27;;;12.20;99.90;;;;;;4998280;28;20461;-67
2021/08/27 02:29:49;;;;;;;5.63;3.60;;;12.20;99.90;;;;;;4998575;28;20497;-67
2021/08/27 02:32:19;;;;;;;11.50;4.50;;;12.20;99.90;;;;;;4999244;28;20465;-67
2021/08/27 02:34:48;;;;;;;6.17;3.73;;;12.20;99.90;;;;;;4998286;28;20488;-67
2021/08/27 02:37:18;;;;;;;6.63;3.50;;;12.20;99.90;;;;;;4998832;28;20527;-67
2021/08/27 02:39:45;;;;;;;6.53;3.57;;;12.10;99.90;;;;;;4998779;28;20469;-67
2021/08/27 02:42:14;;;;;;;8.70;4.10;;;12.10;99.90;;;;;;4998987;28;20473;-67
2021/08/27 02:44:41;;;;;;;12.87;3.80;;;12.10;99.90;;;;;;4998791;28;20762;-67
2021/08/27 02:47:13;;;;;;;9.60;3.77;;;12.10;99.90;;;;;;4998702;28;20472;-67
2021/08/27 02:49:43;;;;;;;8.87;3.80;;;12.20;99.90;;;;;;4998783;28;20469;-67
2021/08/27 02:52:13;;;;;;;8.03;3.50;;;12.20;99.90;;;;;;4998325;28;20508;-67
2021/08/27 02:54:51;;;;;;;5.57;3.27;;;12.20;99.90;;;;;;4997922;28;20563;-67
2021/08/27 02:57:22;;;;;;;7.17;4.10;;;12.20;99.90;;;;;;4998172;28;20465;-67
2021/08/27 02:59:50;;;;;;;6.77;3.50;;;12.10;99.90;;;;;;4999052;28;20464;-67
2021/08/27 03:02:18;;;;;;;7.50;3.80;;;12.10;99.90;;;;;;4998198;28;20573;-67
2021/08/27 03:04:59;;;;;;;7.20;3.60;;;12.10;99.90;;;;;;4992970;28;20924;-67
2021/08/27 03:07:28;;;;;;;6.53;3.87;;;12.00;99.90;;;;;;4982265;28;20508;-67
2021/08/27 03:10:01;;;;;;;5.73;3.27;;;12.00;99.90;;;;;;4982547;28;20593;-67
2021/08/27 03:12:46;;;;;;;9.40;3.73;;;12.10;99.90;;;;;;4994705;28;21024;-67
2021/08/27 03:15:20;;;;;;;6.57;4.00;;;12.00;99.90;;;;;;4983915;28;20528;-67
2021/08/27 03:17:50;;;;;;;9.53;3.80;;;12.10;99.90;;;;;;4995340;28;20815;-67
2021/08/27 03:20:23;;;;;;;6.20;3.57;;;12.10;99.90;;;;;;4993396;28;20524;-67
2021/08/27 03:22:54;;;;;;;9.37;4.00;;;12.10;99.90;;;;;;4998136;28;20527;-67
2021/08/27 03:25:23;;;;;;;4.70;3.20;;;12.10;99.90;;;;;;4995072;28;20531;-67
2021/08/27 03:27:57;;;;;;;7.60;3.80;;;12.10;99.90;;;;;;4984392;28;20466;-67
2021/08/27 03:30:29;;;;;;;8.50;3.70;;;12.00;99.90;;;;;;4995932;28;20493;-67
2021/08/27 03:32:59;;;;;;;11.87;4.27;;;12.00;99.90;;;;;;4997307;28;20478;-67
2021/08/27 03:35:27;;;;;;;6.20;4.00;;;12.10;99.90;;;;;;4997409;28;20457;-67
2021/08/27 03:37:55;;;;;;;10.50;3.50;;;12.10;99.90;;;;;;4997778;28;20457;-67
2021/08/27 03:40:23;;;;;;;5.80;3.97;;;12.20;99.90;;;;;;4997909;28;20519;-67
2021/08/27 03:42:53;;;;;;;7.60;4.13;;;12.20;99.90;;;;;;4996332;28;20461;-67
2021/08/27 03:45:23;;;;;;;5.53;4.10;;;12.10;99.90;;;;;;4990944;28;20551;-67
2021/08/27 03:47:52;;;;;;;10.43;4.70;;;12.10;99.90;;;;;;4987729;28;20520;-67
2021/08/27 03:50:20;;;;;;;6.43;3.80;;;12.20;99.90;;;;;;4988553;28;20829;-67
2021/08/27 03:52:50;;;;;;;14.70;4.67;;;12.20;99.90;;;;;;4990167;28;20528;-67
2021/08/27 03:55:19;;;;;;;7.13;4.07;;;12.30;99.90;;;;;;4985365;28;20567;-67
2021/08/27 03:57:48;;;;;;;5.50;3.93;;;12.30;99.90;;;;;;4985525;28;20468;-67
2021/08/27 04:00:20;;;;;;;8.33;4.00;;;12.20;99.90;;;;;;4988567;28;20531;-67
2021/08/27 04:02:49;;;;;;;8.20;3.90;;;12.20;99.90;;;;;;4997263;28;20460;-67
2021/08/27 04:05:18;;;;;;;6.37;3.43;;;12.30;99.90;;;;;;4998436;28;20472;-67
2021/08/27 04:07:45;;;;;;;7.77;3.93;;;12.30;99.90;;;;;;5001868;28;20472;-67
2021/08/27 04:10:15;;;;;;;6.43;4.30;;;12.20;99.90;;;;;;5001173;28;20547;-67
2021/08/27 04:12:42;;;;;;;9.63;4.33;;;12.20;99.90;;;;;;4983156;28;20505;-67
2021/08/27 04:15:11;;;;;;;5.03;3.87;;;12.20;99.90;;;;;;4994812;28;20492;-67
2021/08/27 04:17:40;;;;;;;8.30;4.10;;;12.20;99.90;;;;;;4988526;28;20473;-67
2021/08/27 04:20:09;;;;;;;6.43;4.30;;;12.10;99.90;;;;;;4997249;28;20460;-67
2021/08/27 04:22:37;;;;;;;5.50;4.10;;;12.10;99.90;;;;;;4984212;28;20550;-67
2021/08/27 04:25:07;;;;;;;9.20;5.10;;;12.20;99.90;;;;;;4993301;28;20462;-67
2021/08/27 04:27:34;;;;;;;9.20;4.43;;;12.20;99.90;;;;;;4988171;28;20882;-67
2021/08/27 04:30:01;;;;;;;10.70;4.70;;;12.20;99.90;;;;;;4981842;28;20842;-67
2021/08/27 04:32:28;;;;;;;7.63;4.33;;;12.20;99.90;;;;;;4998352;28;20546;-67
2021/08/27 04:34:56;;;;;;;7.90;4.53;;;12.20;99.90;;;;;;5000313;28;20574;-67
2021/08/27 04:37:23;;;;;;;9.83;4.20;;;12.10;99.90;;;;;;4989279;28;20894;-67
2021/08/27 04:39:50;;;;;;;7.40;4.17;;;12.10;99.90;;;;;;4999421;28;20754;-67
2021/08/27 04:42:17;;;;;;;7.27;4.00;;;12.10;99.90;;;;;;4998478;28;20469;-67
2021/08/27 04:44:44;;;;;;;8.17;4.20;;;12.10;99.90;;;;;;4989518;28;20487;-67
2021/08/27 04:47:11;;;;;;;11.77;5.20;;;12.10;99.90;;;;;;5000488;28;20543;-67
2021/08/27 04:49:38;;;;;;;6.83;4.47;;;12.20;99.90;;;;;;5000565;28;20457;-67
2021/08/27 04:52:07;;;;;;;7.47;4.60;;;12.20;99.90;;;;;;5000360;28;20461;-67
2021/08/27 04:54:34;;;;;;;6.80;5.00;;;12.20;99.90;;;;;;5000341;28;20485;-67
2021/08/27 04:57:01;;;;;;;8.10;5.30;;;12.30;99.90;;;;;;4991099;28;20469;-67
2021/08/27 04:59:28;;;;;;;7.10;4.83;;;12.30;99.90;;;;;;4989353;28;20890;-67
2021/08/27 05:01:59;;;;;;;13.30;4.90;;;12.30;99.90;;;;;;4984029;28;20511;-67
2021/08/27 05:04:26;;;;;;;10.13;5.40;;;12.20;99.90;;;;;;4998907;28;20894;-67
2021/08/27 05:06:53;;;;;;;13.10;4.97;;;12.30;99.90;;;;;;5000398;28;20476;-67
2021/08/27 05:09:24;;;;;;;6.40;4.90;;;12.30;99.90;;;;;;4999650;28;20523;-67
2021/08/27 05:11:53;;;;;;;8.00;5.70;;;12.40;99.90;;;;;;5000820;28;20843;-67
2021/08/27 05:14:20;;;;;;;9.90;7.23;;;12.40;99.90;;;;;;4999264;28;20493;-67
2021/08/27 05:16:47;;;;;;;8.80;7.70;;;12.50;99.90;;;;;;4998984;28;20544;-67
2021/08/27 05:19:14;;;;;;;14.20;9.30;;;12.60;99.90;;;;;;5000000;28;20469;-67
2021/08/27 05:21:42;;;;;;;15.87;10.00;;;12.60;99.90;;;;;;5000248;28;20431;-67
2021/08/27 05:24:09;;;;;;;10.37;9.37;;;12.60;99.90;;;;;;5000257;28;20585;-67
2021/08/27 05:26:38;;;;;;;12.77;9.13;;;12.60;99.90;;;;;;4999607;28;20535;-67
2021/08/27 05:29:06;;;;;;;12.00;10.27;;;12.50;99.90;;;;;;5000013;28;20527;-67
2021/08/27 05:31:33;;;;;;;12.70;10.33;;;12.50;99.90;;;;;;4999973;28;20843;-67
2021/08/27 05:34:00;;;;;;;14.13;10.90;;;12.50;99.90;;;;;;5000697;28;20555;-67
2021/08/27 05:36:28;;;;;;;15.03;11.20;;;12.50;99.90;;;;;;4999558;28;20469;-67
2021/08/27 05:38:55;;;;;;;13.63;12.23;;;12.50;99.90;;;;;;4999888;28;20527;-66
2021/08/27 05:41:22;;;;;;;20.40;14.27;;;12.60;99.90;;;;;;4999606;28;20465;-66
2021/08/27 05:43:50;;;;;;;15.50;13.93;;;12.70;99.90;;;;;;4999700;28;20453;-67
2021/08/27 05:46:17;;;;;;;18.10;14.50;;;12.70;99.90;;;;;;5000532;28;20461;-67
2021/08/27 05:48:44;;;;;;;17.03;14.70;;;12.70;99.90;;;;;;4999642;28;20461;-66
2021/08/27 05:51:11;;;;;;;17.70;15.13;;;12.80;99.90;;;;;;4999618;28;20469;-67
2021/08/27 05:53:39;;;;;;;21.13;16.40;;;12.80;99.90;;;;;;4999506;28;20956;-67
2021/08/27 05:56:06;;;;;;;17.83;15.97;;;12.70;99.90;;;;;;4999565;28;20493;-66
2021/08/27 05:58:33;;;;;;;24.07;18.67;;;12.80;99.90;;;;;;4999402;28;20589;-66
2021/08/27 06:01:01;;;;;;;19.37;17.23;;;12.80;99.90;;;;;;4999603;28;20467;-66
2021/08/27 06:03:28;;;;;;;19.30;17.40;;;12.90;99.90;;;;;;4999483;28;20468;-66
2021/08/27 06:05:55;;;;;;;20.23;18.17;;;12.90;99.90;;;;;;4999714;28;20461;-66
2021/08/27 06:08:22;;;;;;;18.63;16.60;;;13.10;99.90;;;;;;4998786;28;20469;-66
2021/08/27 06:10:49;;;;;;;16.70;15.10;;;13.10;99.90;;;;;;4998931;28;20828;-66
2021/08/27 06:13:16;;;;;;;18.63;15.70;;;13.30;99.90;;;;;;4979905;28;20461;-66
2021/08/27 06:15:44;;;;;;;18.37;16.43;;;13.20;99.90;;;;;;4983507;28;20488;-66
2021/08/27 06:18:13;;;;;;;17.03;15.23;;;13.30;99.90;;;;;;5000064;28;20961;-66
2021/08/27 06:20:40;;;;;;;15.87;14.03;;;13.20;99.90;;;;;;4998902;28;20461;-66
2021/08/27 06:23:08;;;;;;;18.40;14.80;;;13.30;99.90;;;;;;4999121;28;20461;-66
2021/08/27 06:25:36;;;;;;;15.20;13.60;;;13.40;99.90;;;;;;4999030;28;20461;-66
2021/08/27 06:28:03;;;;;;;12.33;10.70;;;13.30;99.90;;;;;;4998865;28;20492;-66
2021/08/27 06:30:30;;;;;;;14.67;12.50;;;13.30;99.90;;;;;;4998618;28;20551;-66
2021/08/27 06:32:57;;;;;;;15.83;14.20;;;13.20;99.90;;;;;;4999313;28;20901;-66
2021/08/27 06:35:26;;;;;;;14.23;12.73;;;13.30;99.90;;;;;;4999009;28;20496;-66
2021/08/27 07:14:21;;;;;;;16.57;15.00;;;13.80;99.90;;;;;;4354492;23;20488;-63
2021/08/27 07:16:49;;;;;;;16.90;14.90;;;14.00;99.90;;;;;;4997923;28;20473;-63
2021/08/27 07:19:15;;;;;;;17.83;14.73;;;14.10;99.90;;;;;;4997992;28;20524;-63
2021/08/27 07:21:43;;;;;;;16.00;14.43;;;14.10;99.90;;;;;;4998272;28;20878;-63
2021/08/27 07:24:10;;;;;;;16.17;14.50;;;14.10;99.90;;;;;;4990986;28;20436;-63
2021/08/27 07:26:37;;;;;;;13.40;12.10;;;14.20;99.90;;;;;;4982772;28;20893;-62
2021/08/27 07:29:04;;;;;;;15.03;12.30;;;14.40;99.90;;;;;;4998349;28;20523;-62
2021/08/27 07:31:32;;;;;;;13.43;12.10;;;14.50;99.90;;;;;;4997845;28;20590;-62
2021/08/27 07:34:02;;;;;;;13.10;12.00;;;14.50;99.90;;;;;;4998197;28;20524;-62
2021/08/27 07:36:29;;;;;;;13.90;12.60;;;14.50;99.90;;;;;;4995975;28;20530;-62
2021/08/27 07:38:56;;;;;;;14.20;12.53;;;14.40;99.90;;;;;;4978605;28;20466;-61
2021/08/27 07:41:23;;;;;;;13.90;12.47;;;14.50;99.90;;;;;;4978419;28;20469;-61
2021/08/27 07:43:53;;;;;;;14.57;13.30;;;14.50;99.90;;;;;;4991043;28;20519;-61
2021/08/27 07:46:20;;;;;;;13.70;12.37;;;14.40;99.90;;;;;;4997820;28;20898;-61
2021/08/27 07:48:48;;;;;;;16.17;13.93;;;14.50;99.90;;;;;;4998206;28;20467;-61
2021/08/27 07:51:18;;;;;;;18.23;14.70;;;14.70;99.90;;;;;;4981747;28;20827;-60
2021/08/27 07:53:45;;;;;;;15.57;14.17;;;14.70;99.90;;;;;;4985302;28;20848;-60
2021/08/27 07:56:12;;;;;;;14.70;13.07;;;14.70;99.90;;;;;;4990468;28;20945;-60
2021/08/27 07:58:39;;;;;;;16.13;14.67;;;14.70;99.90;;;;;;4986089;28;20523;-60
2021/08/27 08:01:09;;;;;;;17.20;15.60;;;14.80;99.90;;;;;;4992566;28;20461;-60
2021/08/27 08:03:37;;;;;;;16.33;14.70;;;14.70;99.90;;;;;;4991079;28;20458;-60
2021/08/27 08:06:05;;;;;;;18.03;14.07;;;14.70;99.90;;;;;;4983329;28;20458;-60
2021/08/27 08:08:32;;;;;;;16.23;14.80;;;14.70;99.90;;;;;;4979105;28;20466;-59
2021/08/27 08:10:59;;;;;;;18.90;17.00;;;14.80;99.90;;;;;;4991123;28;20465;-59
2021/08/27 08:13:26;;;;;;;20.00;18.10;;;14.90;99.90;;;;;;4996924;28;20488;-57
2021/08/27 09:25:49;;;;;;;10.40;7.40;;;15.40;99.90;;;;;;4176300;23;20494;-65
2021/08/27 09:28:17;;;;;;;8.83;7.10;;;15.30;99.90;;;;;;4983022;28;20461;-66
2021/08/27 09:30:55;;;;;;;7.47;6.77;;;15.30;99.90;;;;;;4981176;28;20462;-65
2021/08/27 09:33:24;;;;;;;8.80;6.90;;;15.20;99.90;;;;;;4980690;28;20466;-65
2021/08/27 09:36:02;;;;;;;9.63;6.93;;;15.10;99.90;;;;;;4980379;28;20525;-66
2021/08/27 09:38:31;;;;;;;9.03;6.30;;;15.00;99.90;;;;;;4985454;28;20469;-66
2021/08/27 09:41:34;;;;;;;7.57;6.40;;;14.90;99.90;;;;;;4999640;28;20473;-65
2021/08/27 09:44:02;;;;;;;11.27;6.73;;;15.10;99.90;;;;;;4999912;28;20476;-65
2021/08/27 09:46:33;;;;;;;8.07;6.77;;;15.60;99.90;;;;;;5000192;28;20465;-65
2021/08/27 09:49:02;;;;;;;8.40;6.30;;;15.80;99.90;;;;;;5000126;28;20816;-65
2021/08/27 09:51:50;;;;;;;10.23;6.43;;;15.90;99.90;;;;;;4996947;28;20979;-65
2021/08/27 09:54:26;;;;;;;7.60;6.83;;;16.00;99.90;;;;;;4984644;28;20466;-64
2021/08/27 09:56:55;;;;;;;8.77;6.10;;;16.50;99.90;;;;;;4979821;28;20497;-64
2021/08/27 09:59:32;;;;;;;8.77;5.83;;;16.60;99.90;;;;;;4982551;28;20457;-64
2021/08/27 10:01:59;;;;;;;7.30;6.37;;;16.70;99.90;;;;;;4996546;28;20521;-64
2021/08/27 11:12:18;;;;;;;5.70;4.93;;;20.20;99.90;;;;;;3453619;23;20497;-47
2021/08/27 11:14:47;;;;;;;4.53;4.10;;;19.80;99.90;;;;;;4980518;28;20483;-48
2021/08/27 11:17:15;;;;;;;5.93;3.70;;;19.80;99.90;;;;;;4978622;28;20488;-52
2021/08/27 11:19:49;;;;;;;5.20;3.77;;;19.80;99.90;;;;;;4977814;28;20465;-48
2021/08/27 11:22:24;;;;;;;4.17;3.80;;;19.80;99.90;;;;;;4977927;28;20464;-46
2021/08/27 11:25:23;;;;;;;4.60;4.20;;;18.90;99.90;;;;;;4990653;28;20464;-47
2021/08/27 11:28:28;;;;;;;5.83;4.40;;;18.50;99.90;;;;;;4986182;28;20499;-46
2021/08/27 11:31:08;;;;;;;5.33;4.10;;;18.50;99.90;;;;;;4998450;28;20461;-47
2021/08/27 11:33:56;;;;;;;4.13;3.30;;;18.70;99.90;;;;;;4997707;28;20468;-48
2021/08/27 11:36:24;;;;;;;5.97;3.90;;;18.50;99.90;;;;;;4997769;28;20510;-47
2021/08/27 11:38:57;;;;;;;4.90;3.57;;;19.00;99.90;;;;;;4997760;28;20488;-48
2021/08/27 11:41:27;;;;;;;4.83;3.87;;;19.60;99.90;;;;;;4997471;28;20469;-50
2021/08/27 11:44:12;;;;;;;6.43;3.60;;;20.00;99.90;;;;;;4997973;28;20523;-51
2021/08/27 11:46:46;;;;;;;7.90;3.20;;;20.90;99.90;;;;;;4995449;28;20468;-53
2021/08/27 11:49:27;;;;;;;4.07;2.90;;;21.10;99.90;;;;;;4996711;28;20443;-47
2021/08/27 11:52:10;;;;;;;5.90;3.50;;;20.50;99.90;;;;;;4994471;28;20472;-49
2021/08/27 11:54:37;;;;;;;6.20;3.50;;;20.60;99.90;;;;;;4996423;28;20465;-49
2021/08/27 11:57:13;;;;;;;4.23;2.93;;;20.10;99.90;;;;;;4997362;28;20559;-49
2021/08/27 11:59:42;;;;;;;5.33;2.80;;;19.30;99.90;;;;;;4997523;28;20464;-47
2021/08/27 12:36:17;;;;;;;3.90;3.17;;;18.90;99.90;;;;;;4638287;23;20497;-54
2021/08/27 12:38:44;;;;;;;3.90;3.00;;;18.50;99.90;;;;;;5001349;28;20468;-55
2021/08/27 12:41:17;;;;;;;5.00;3.10;;;18.60;99.90;;;;;;5001467;28;20816;-54
2021/08/27 12:43:45;;;;;;;4.00;3.17;;;18.60;99.90;;;;;;5001088;28;20889;-47
2021/08/27 13:20:39;;;;;;;3.27;2.80;;;17.80;99.90;;;;;;3076860;23;20488;-48
2021/08/27 13:23:20;;;;;;;3.40;2.50;;;17.70;99.90;;;;;;4999971;28;20473;-50
2021/08/27 13:25:54;;;;;;;5.00;3.03;;;18.20;99.90;;;;;;4980789;28;20822;-53
2021/08/27 13:28:22;;;;;;;2.97;2.60;;;18.60;99.90;;;;;;4998777;28;20951;-49
2021/08/27 13:30:49;;;;;;;7.33;3.00;;;18.40;99.90;;;;;;5000404;28;20604;-56
2021/08/27 13:33:16;;;;;;;3.90;2.83;;;18.20;99.90;;;;;;5000452;28;20519;-48
2021/08/27 13:35:44;;;;;;;5.40;3.27;;;18.30;99.90;;;;;;5000130;28;20547;-52
2021/08/27 13:38:12;;;;;;;5.50;2.87;;;18.10;99.90;;;;;;4999845;28;20460;-48
2021/08/27 13:40:39;;;;;;;4.93;3.40;;;18.10;99.90;;;;;;4999427;28;20465;-50
2021/08/27 13:43:07;;;;;;;5.87;3.07;;;18.20;99.90;;;;;;4999370;28;20468;-52
2021/08/27 13:45:35;;;;;;;3.93;3.53;;;18.20;99.90;;;;;;4999883;28;20527;-51
2021/08/27 13:48:05;;;;;;;7.70;4.13;;;18.20;99.90;;;;;;4993520;28;20465;-50
2021/08/27 13:50:32;;;;;;;4.50;3.57;;;18.60;99.90;;;;;;4993306;28;20461;-52
2021/08/27 13:53:00;;;;;;;3.00;2.50;;;18.60;99.90;;;;;;4998842;28;20532;-53
2021/08/27 13:55:30;;;;;;;2.80;2.57;;;19.20;99.90;;;;;;4980334;28;20465;-48
2021/08/27 13:57:57;;;;;;;5.30;3.20;;;20.20;99.90;;;;;;4980496;28;20466;-50
2021/08/27 14:00:29;;;;;;;2.63;2.43;;;21.30;99.90;;;;;;4979314;28;20898;-53
2021/08/27 14:02:58;;;;;;;2.60;2.40;;;22.10;99.00;;;;;;4979708;28;20465;-53
2021/08/27 14:05:27;;;;;;;2.77;2.23;;;22.20;97.10;;;;;;4980931;28;20533;-49
2021/08/27 14:07:54;;;;;;;3.87;3.07;;;21.70;93.30;;;;;;4979970;28;20529;-50
2021/08/27 15:21:03;;;;;;;5.13;4.50;;;17.00;99.90;;;;;;4956986;29;20449;-67
2021/08/27 15:23:31;;;;;;;6.17;4.83;;;17.20;99.90;;;;;;4957128;29;20874;-67
2021/08/27 15:25:58;;;;;;;4.53;4.13;;;17.30;99.90;;;;;;4952710;29;20525;-67
2021/08/27 15:28:25;;;;;;;6.27;4.90;;;17.40;99.90;;;;;;4953194;29;20467;-66
2021/08/27 15:30:55;;;;;;;21.23;14.03;;;17.40;99.90;;;;;;4959433;29;20466;-66
2021/08/27 15:33:22;;;;;;;45.80;35.80;;;17.40;99.90;;;;;;4959154;29;20474;-66
2021/08/27 15:35:52;;;;;;;37.47;33.67;;;17.70;99.90;;;;;;4958974;29;20498;-65
2021/08/27 15:38:23;;;;;;;9.27;7.63;;;17.70;99.90;;;;;;4958869;29;20466;-65
2021/08/27 15:40:52;;;;;;;6.87;4.83;;;17.90;99.90;;;;;;4959744;29;20868;-65
2021/08/27 15:43:19;;;;;;;8.20;4.73;;;17.90;99.90;;;;;;4958659;29;20470;-65
2021/08/27 15:45:50;;;;;;;7.40;4.80;;;18.50;99.90;;;;;;4958683;29;20521;-65
2021/08/27 15:48:16;;;;;;;6.87;4.23;;;18.90;99.90;;;;;;4957706;29;20470;-65
2021/08/27 16:25:53;;;;;;;11.33;10.23;;;16.20;99.90;;;;;;3507652;23;20484;-68
2021/08/27 16:28:20;;;;;;;5.73;3.40;;;15.90;99.90;;;;;;4986915;28;20464;-67
2021/08/27 16:30:47;;;;;;;5.07;3.80;;;15.70;99.90;;;;;;5001768;28;20853;-67
2021/08/27 16:33:18;;;;;;;4.43;3.23;;;15.60;99.90;;;;;;5001346;28;20885;-71
2021/08/27 16:35:45;;;;;;;5.70;5.17;;;15.50;99.90;;;;;;5001305;28;20460;-71
2021/08/27 16:38:12;;;;;;;3.93;3.53;;;15.50;99.90;;;;;;5001015;28;20476;-71
2021/08/27 17:15:08;;;;;;;7.20;3.17;;;15.40;99.90;;;;;;3451494;23;20482;-73
2021/08/27 17:17:38;;;;;;;4.60;3.47;;;15.40;99.90;;;;;;5000527;28;20987;-73
2021/08/27 17:20:07;;;;;;;10.23;5.50;;;15.50;99.90;;;;;;5000263;28;20465;-73
2021/08/27 17:56:16;;;;;;;3.87;3.40;;;15.10;99.90;;;;;;5089601;23;20480;-72
2021/08/27 17:58:45;;;;;;;6.23;3.93;;;15.00;99.90;;;;;;5019503;28;20499;-72
2021/08/27 18:01:12;;;;;;;8.97;4.20;;;15.10;99.90;;;;;;5018823;28;20483;-72
2021/08/27 18:03:39;;;;;;;8.20;5.37;;;15.10;99.90;;;;;;5019012;28;20518;-72
2021/08/27 18:06:09;;;;;;;8.00;4.33;;;15.10;99.90;;;;;;5019108;28;20460;-71
2021/08/27 18:08:38;;;;;;;6.33;4.20;;;15.20;99.90;;;;;;5019142;28;20442;-71
2021/08/27 18:11:05;;;;;;;9.77;8.77;;;15.20;99.90;;;;;;5018545;28;20472;-71
2021/08/27 18:13:35;;;;;;;6.83;5.97;;;15.30;99.90;;;;;;5018886;28;20868;-71
2021/08/27 18:16:02;;;;;;;7.50;4.67;;;15.20;99.90;;;;;;5018113;28;20460;-71
2021/08/27 18:18:31;;;;;;;8.33;6.00;;;15.20;99.90;;;;;;5018938;28;20449;-71
2021/08/27 18:21:02;;;;;;;7.83;5.37;;;15.30;99.90;;;;;;5018812;28;20467;-71
2021/08/27 18:23:31;;;;;;;7.40;5.70;;;15.30;99.90;;;;;;5016262;28;20534;-71
2021/08/27 18:25:58;;;;;;;6.87;4.93;;;15.20;99.90;;;;;;5002970;28;20563;-71
2021/08/27 18:28:25;;;;;;;4.20;3.80;;;15.10;99.90;;;;;;5004907;28;20468;-71
2021/08/27 18:30:59;;;;;;;7.23;4.23;;;15.10;99.90;;;;;;5018554;28;20526;-71
2021/08/27 18:33:26;;;;;;;55.37;45.40;;;15.10;99.90;;;;;;5018772;28;20872;-71
2021/08/27 18:35:54;;;;;;;22.70;18.53;;;15.10;99.90;;;;;;5017806;28;20472;-71
2021/08/27 18:38:25;;;;;;;12.27;8.53;;;15.00;99.90;;;;;;5018556;28;20869;-71
2021/08/27 18:40:52;;;;;;;7.70;5.10;;;15.00;99.90;;;;;;5018605;28;20468;-71
2021/08/27 18:43:20;;;;;;;5.97;4.20;;;14.90;99.90;;;;;;5012812;28;20774;-71
2021/08/27 18:45:47;;;;;;;7.47;5.00;;;14.90;99.90;;;;;;5016419;28;20897;-71
2021/08/27 18:48:15;;;;;;;7.87;4.07;;;14.90;99.90;;;;;;5018519;28;20731;-72
2021/08/27 18:50:45;;;;;;;6.20;4.23;;;14.90;99.90;;;;;;5018371;28;20507;-72
2021/08/27 18:53:15;;;;;;;4.47;4.07;;;14.80;99.90;;;;;;5016017;28;20924;-72
2021/08/27 18:55:42;;;;;;;7.77;5.70;;;14.90;99.90;;;;;;5013849;28;20952;-72
2021/08/27 18:58:09;;;;;;;9.13;4.80;;;14.80;99.90;;;;;;5017865;28;20583;-72
2021/08/27 19:00:36;;;;;;;6.70;4.30;;;14.60;99.90;;;;;;5018068;28;20464;-71
2021/08/27 19:03:04;;;;;;;8.37;5.57;;;14.60;99.90;;;;;;5017278;28;20446;-71
2021/08/27 19:05:32;;;;;;;6.10;4.97;;;14.60;99.90;;;;;;5017811;28;20470;-71
2021/08/27 19:08:01;;;;;;;7.03;4.40;;;14.50;99.90;;;;;;5018092;28;20455;-70
2021/08/27 19:10:31;;;;;;;6.17;4.17;;;14.60;99.90;;;;;;5017778;28;20468;-70
2021/08/27 19:13:04;;;;;;;8.90;5.07;;;14.50;99.90;;;;;;5017693;28;20472;-70
2021/08/27 19:15:34;;;;;;;6.23;4.60;;;14.50;99.90;;;;;;5016343;28;20846;-70
2021/08/27 19:18:06;;;;;;;7.03;4.80;;;14.50;99.90;;;;;;5016505;28;20492;-70
2021/08/27 19:20:37;;;;;;;6.50;4.53;;;14.60;99.90;;;;;;5017583;28;20472;-70
2021/08/27 19:23:07;;;;;;;7.00;4.10;;;14.60;99.90;;;;;;5017275;28;20861;-70
2021/08/27 19:25:34;;;;;;;5.37;3.50;;;14.60;99.90;;;;;;5008911;28;20464;-70
2021/08/27 19:28:04;;;;;;;5.83;3.93;;;14.50;99.90;;;;;;5011464;28;20489;-70
2021/08/27 19:30:41;;;;;;;5.60;3.70;;;14.50;99.90;;;;;;5017301;28;20467;-70
2021/08/27 19:33:08;;;;;;;8.17;4.57;;;14.50;99.90;;;;;;5017953;28;20468;-70
2021/08/27 19:35:42;;;;;;;6.30;3.70;;;14.40;99.90;;;;;;5014675;28;20464;-70
2021/08/27 19:38:13;;;;;;;5.30;4.03;;;14.50;99.90;;;;;;5009002;28;20530;-70
2021/08/27 19:40:40;;;;;;;6.67;3.80;;;14.40;99.90;;;;;;5017600;28;20475;-69
2021/08/27 19:43:07;;;;;;;6.13;4.60;;;14.40;99.90;;;;;;5016735;28;20522;-69
2021/08/27 19:45:35;;;;;;;6.93;3.80;;;14.40;99.90;;;;;;5016284;28;20471;-69
2021/08/27 19:48:04;;;;;;;5.80;4.30;;;14.30;99.90;;;;;;5017255;28;20467;-69
2021/08/27 19:50:31;;;;;;;8.00;4.93;;;14.30;99.90;;;;;;5017575;28;20474;-69
2021/08/27 19:53:04;;;;;;;6.80;3.70;;;14.30;99.90;;;;;;5017437;28;20468;-69